sensor_id;sensor_type;location;lat;lon;timestamp;temperature;humidity
15107;DHT22;7654;45.308;-75.096;2022-09-30T00:02:02;6.90;99.90
15107;DHT22;7654;45.308;-75.096;2022-09-30T00:04:32;6.80;99.90
15107;DHT22;7654;45.308;-75.096;2022-09-30T00:07:03;6.80;99.90
15107;DHT22;7654;45.308;-75.096;2022-09-30T00:09:34;6.70;99.90
15107;DHT22;7654;45.308;-75.096;2022-09-30T00:12:04;6.60;99.90
15107;DHT22;7654;45.308;-75.096;2022-09-30T00:14:34;6.70;99.90
15107;DHT22;7654;45.308;-75.096;2022-09-30T00:17:05;6.80;99.90
15107;DHT22;7654;45.308;-75.096;2022-09-30T00:19:35;6.60;99.90
15107;DHT22;7654;45.308;-75.096;2022-09-30T00:22:09;6.50;99.90
15107;DHT22;7654;45.308;-75.096;2022-09-30T00:24:39;6.50;99.90
15107;DHT22;7654;45.308;-75.096;2022-09-30T00:27:11;6.40;99.90
15107;DHT22;7654;45.308;-75.096;2022-09-30T00:29:46;6.40;99.90
15107;DHT22;7654;45.308;-75.096;2022-09-30T00:32:17;6.20;99.90
15107;DHT22;7654;45.308;-75.096;2022-09-30T00:34:47;6.10;99.90
15107;DHT22;7654;45.308;-75.096;2022-09-30T00:37:23;6.10;99.90
15107;DHT22;7654;45.308;-75.096;2022-09-30T00:39:53;6.20;99.90
15107;DHT22;7654;45.308;-75.096;2022-09-30T00:42:23;6.10;99.90
15107;DHT22;7654;45.308;-75.096;2022-09-30T00:45:04;6.10;99.90
15107;DHT22;7654;45.308;-75.096;2022-09-30T00:47:41;6.00;99.90
15107;DHT22;7654;45.308;-75.096;2022-09-30T00:50:26;5.90;99.90
15107;DHT22;7654;45.308;-75.096;2022-09-30T00:53:09;5.80;99.90
15107;DHT22;7654;45.308;-75.096;2022-09-30T00:55:58;5.80;99.90
15107;DHT22;7654;45.308;-75.096;2022-09-30T00:58:34;5.70;99.90
15107;DHT22;7654;45.308;-75.096;2022-09-30T01:01:05;5.70;99.90
15107;DHT22;7654;45.308;-75.096;2022-09-30T01:03:39;5.70;99.90
15107;DHT22;7654;45.308;-75.096;2022-09-30T01:06:10;5.60;99.90
15107;DHT22;7654;45.308;-75.096;2022-09-30T01:08:45;5.60;99.90
15107;DHT22;7654;45.308;-75.096;2022-09-30T01:11:16;5.50;99.90
15107;DHT22;7654;45.308;-75.096;2022-09-30T01:13:49;5.50;99.90
15107;DHT22;7654;45.308;-75.096;2022-09-30T01:16:30;5.60;99.90
15107;DHT22;7654;45.308;-75.096;2022-09-30T01:22:27;5.50;99.90
15107;DHT22;7654;45.308;-75.096;2022-09-30T01:28:41;5.50;99.90
15107;DHT22;7654;45.308;-75.096;2022-09-30T01:31:31;5.30;99.90
15107;DHT22;7654;45.308;-75.096;2022-09-30T01:34:15;5.40;99.90
15107;DHT22;7654;45.308;-75.096;2022-09-30T01:36:57;5.40;99.90
15107;DHT22;7654;45.308;-75.096;2022-09-30T01:39:39;5.50;99.90
15107;DHT22;7654;45.308;-75.096;2022-09-30T01:42:15;5.40;99.90
15107;DHT22;7654;45.308;-75.096;2022-09-30T01:44:54;5.40;99.90
15107;DHT22;7654;45.308;-75.096;2022-09-30T01:47:35;5.30;99.90
15107;DHT22;7654;45.308;-75.096;2022-09-30T01:50:17;5.30;99.90
15107;DHT22;7654;45.308;-75.096;2022-09-30T01:52:53;5.30;99.90
15107;DHT22;7654;45.308;-75.096;2022-09-30T01:55:29;5.30;99.90
15107;DHT22;7654;45.308;-75.096;2022-09-30T01:58:06;5.20;99.90
15107;DHT22;7654;45.308;-75.096;2022-09-30T02:00:41;5.10;99.90
15107;DHT22;7654;45.308;-75.096;2022-09-30T02:03:17;5.00;99.90
15107;DHT22;7654;45.308;-75.096;2022-09-30T02:05:53;5.00;99.90
15107;DHT22;7654;45.308;-75.096;2022-09-30T02:08:27;5.10;99.90
15107;DHT22;7654;45.308;-75.096;2022-09-30T02:11:02;5.00;99.90
15107;DHT22;7654;45.308;-75.096;2022-09-30T02:13:40;4.90;99.90
15107;DHT22;7654;45.308;-75.096;2022-09-30T02:16:15;5.00;99.90
15107;DHT22;7654;45.308;-75.096;2022-09-30T02:18:52;4.90;99.90
15107;DHT22;7654;45.308;-75.096;2022-09-30T02:21:25;4.90;99.90
15107;DHT22;7654;45.308;-75.096;2022-09-30T02:24:01;4.90;99.90
15107;DHT22;7654;45.308;-75.096;2022-09-30T02:26:36;4.90;99.90
15107;DHT22;7654;45.308;-75.096;2022-09-30T02:29:10;4.80;99.90
15107;DHT22;7654;45.308;-75.096;2022-09-30T02:31:43;4.70;99.90
15107;DHT22;7654;45.308;-75.096;2022-09-30T02:34:19;4.70;99.90
15107;DHT22;7654;45.308;-75.096;2022-09-30T02:37:13;4.70;99.90
15107;DHT22;7654;45.308;-75.096;2022-09-30T02:39:49;4.60;99.90
15107;DHT22;7654;45.308;-75.096;2022-09-30T02:42:22;4.60;99.90
15107;DHT22;7654;45.308;-75.096;2022-09-30T02:44:58;4.60;99.90
15107;DHT22;7654;45.308;-75.096;2022-09-30T02:47:39;4.50;99.90
15107;DHT22;7654;45.308;-75.096;2022-09-30T02:50:19;4.50;99.90
15107;DHT22;7654;45.308;-75.096;2022-09-30T02:53:02;4.50;99.90
15107;DHT22;7654;45.308;-75.096;2022-09-30T02:55:43;4.60;99.90
15107;DHT22;7654;45.308;-75.096;2022-09-30T02:58:19;4.60;99.90
15107;DHT22;7654;45.308;-75.096;2022-09-30T03:00:51;4.50;99.90
15107;DHT22;7654;45.308;-75.096;2022-09-30T03:03:25;4.50;99.90
15107;DHT22;7654;45.308;-75.096;2022-09-30T03:05:58;4.50;99.90
15107;DHT22;7654;45.308;-75.096;2022-09-30T03:08:28;4.50;99.90
15107;DHT22;7654;45.308;-75.096;2022-09-30T03:10:58;4.40;99.90
15107;DHT22;7654;45.308;-75.096;2022-09-30T03:13:50;4.30;99.90
15107;DHT22;7654;45.308;-75.096;2022-09-30T03:16:34;4.20;99.90
15107;DHT22;7654;45.308;-75.096;2022-09-30T03:19:21;4.10;99.90
15107;DHT22;7654;45.308;-75.096;2022-09-30T03:22:13;4.20;99.90
15107;DHT22;7654;45.308;-75.096;2022-09-30T03:25:01;4.20;99.90
15107;DHT22;7654;45.308;-75.096;2022-09-30T03:27:43;4.10;99.90
15107;DHT22;7654;45.308;-75.096;2022-09-30T03:30:20;4.20;99.90
15107;DHT22;7654;45.308;-75.096;2022-09-30T03:33:07;4.20;99.90
15107;DHT22;7654;45.308;-75.096;2022-09-30T03:35:46;4.20;99.90
15107;DHT22;7654;45.308;-75.096;2022-09-30T03:38:26;4.10;99.90
15107;DHT22;7654;45.308;-75.096;2022-09-30T03:41:03;4.00;99.90
15107;DHT22;7654;45.308;-75.096;2022-09-30T03:43:40;4.00;99.90
15107;DHT22;7654;45.308;-75.096;2022-09-30T03:46:17;4.00;99.90
15107;DHT22;7654;45.308;-75.096;2022-09-30T03:48:51;4.00;99.90
15107;DHT22;7654;45.308;-75.096;2022-09-30T03:51:23;3.90;99.90
15107;DHT22;7654;45.308;-75.096;2022-09-30T03:53:55;3.90;99.90
15107;DHT22;7654;45.308;-75.096;2022-09-30T03:56:28;3.80;99.90
15107;DHT22;7654;45.308;-75.096;2022-09-30T03:58:59;3.80;99.90
15107;DHT22;7654;45.308;-75.096;2022-09-30T04:01:29;3.80;99.90
15107;DHT22;7654;45.308;-75.096;2022-09-30T04:04:00;3.80;99.90
15107;DHT22;7654;45.308;-75.096;2022-09-30T04:06:30;3.80;99.90
15107;DHT22;7654;45.308;-75.096;2022-09-30T04:09:02;4.00;99.90
15107;DHT22;7654;45.308;-75.096;2022-09-30T04:11:32;4.00;99.90
15107;DHT22;7654;45.308;-75.096;2022-09-30T04:14:03;3.90;99.90
15107;DHT22;7654;45.308;-75.096;2022-09-30T04:16:33;3.90;99.90
15107;DHT22;7654;45.308;-75.096;2022-09-30T04:19:03;3.80;99.90
15107;DHT22;7654;45.308;-75.096;2022-09-30T04:21:33;3.80;99.90
15107;DHT22;7654;45.308;-75.096;2022-09-30T04:24:05;3.80;99.90
15107;DHT22;7654;45.308;-75.096;2022-09-30T04:26:36;3.80;99.90
15107;DHT22;7654;45.308;-75.096;2022-09-30T04:29:06;3.70;99.90
15107;DHT22;7654;45.308;-75.096;2022-09-30T04:31:36;3.60;99.90
15107;DHT22;7654;45.308;-75.096;2022-09-30T04:34:06;3.60;99.90
15107;DHT22;7654;45.308;-75.096;2022-09-30T04:36:38;3.60;99.90
15107;DHT22;7654;45.308;-75.096;2022-09-30T04:39:10;3.60;99.90
15107;DHT22;7654;45.308;-75.096;2022-09-30T04:41:41;3.60;99.90
15107;DHT22;7654;45.308;-75.096;2022-09-30T04:44:11;3.50;99.90
15107;DHT22;7654;45.308;-75.096;2022-09-30T04:46:41;3.50;99.90
15107;DHT22;7654;45.308;-75.096;2022-09-30T04:49:11;3.60;99.90
15107;DHT22;7654;45.308;-75.096;2022-09-30T04:51:41;3.60;99.90
15107;DHT22;7654;45.308;-75.096;2022-09-30T04:54:15;3.50;99.90
15107;DHT22;7654;45.308;-75.096;2022-09-30T04:56:45;3.50;99.90
15107;DHT22;7654;45.308;-75.096;2022-09-30T04:59:15;3.40;99.90
15107;DHT22;7654;45.308;-75.096;2022-09-30T05:01:45;3.40;99.90
15107;DHT22;7654;45.308;-75.096;2022-09-30T05:04:15;3.60;99.90
15107;DHT22;7654;45.308;-75.096;2022-09-30T05:06:46;3.50;99.90
15107;DHT22;7654;45.308;-75.096;2022-09-30T05:09:18;3.50;99.90
15107;DHT22;7654;45.308;-75.096;2022-09-30T05:11:49;3.40;99.90
15107;DHT22;7654;45.308;-75.096;2022-09-30T05:14:19;3.40;99.90
15107;DHT22;7654;45.308;-75.096;2022-09-30T05:16:49;3.40;99.90
15107;DHT22;7654;45.308;-75.096;2022-09-30T05:19:20;3.30;99.90
15107;DHT22;7654;45.308;-75.096;2022-09-30T05:21:50;3.30;99.90
15107;DHT22;7654;45.308;-75.096;2022-09-30T05:24:23;3.40;99.90
15107;DHT22;7654;45.308;-75.096;2022-09-30T05:26:53;3.30;99.90
15107;DHT22;7654;45.308;-75.096;2022-09-30T05:29:24;3.30;99.90
15107;DHT22;7654;45.308;-75.096;2022-09-30T05:31:54;3.30;99.90
15107;DHT22;7654;45.308;-75.096;2022-09-30T05:34:25;3.30;99.90
15107;DHT22;7654;45.308;-75.096;2022-09-30T05:36:55;3.20;99.90
15107;DHT22;7654;45.308;-75.096;2022-09-30T05:39:27;3.10;99.90
15107;DHT22;7654;45.308;-75.096;2022-09-30T05:41:58;3.10;99.90
15107;DHT22;7654;45.308;-75.096;2022-09-30T05:44:28;3.10;99.90
15107;DHT22;7654;45.308;-75.096;2022-09-30T05:46:58;3.10;99.90
15107;DHT22;7654;45.308;-75.096;2022-09-30T05:49:29;3.00;99.90
15107;DHT22;7654;45.308;-75.096;2022-09-30T05:52:02;3.00;99.90
15107;DHT22;7654;45.308;-75.096;2022-09-30T05:54:34;2.90;99.90
15107;DHT22;7654;45.308;-75.096;2022-09-30T05:57:04;2.90;99.90
15107;DHT22;7654;45.308;-75.096;2022-09-30T05:59:34;3.00;99.90
15107;DHT22;7654;45.308;-75.096;2022-09-30T06:02:07;3.20;99.90
15107;DHT22;7654;45.308;-75.096;2022-09-30T06:04:37;3.10;99.90
15107;DHT22;7654;45.308;-75.096;2022-09-30T06:07:07;3.10;99.90
15107;DHT22;7654;45.308;-75.096;2022-09-30T06:09:39;3.00;99.90
15107;DHT22;7654;45.308;-75.096;2022-09-30T06:12:09;3.00;99.90
15107;DHT22;7654;45.308;-75.096;2022-09-30T06:14:39;3.10;99.90
15107;DHT22;7654;45.308;-75.096;2022-09-30T06:17:09;3.10;99.90
15107;DHT22;7654;45.308;-75.096;2022-09-30T06:19:40;3.00;99.90
15107;DHT22;7654;45.308;-75.096;2022-09-30T06:22:10;2.90;99.90
15107;DHT22;7654;45.308;-75.096;2022-09-30T06:24:41;3.00;99.90
15107;DHT22;7654;45.308;-75.096;2022-09-30T06:27:12;2.90;99.90
15107;DHT22;7654;45.308;-75.096;2022-09-30T06:29:42;2.90;99.90
15107;DHT22;7654;45.308;-75.096;2022-09-30T06:32:12;2.90;99.90
15107;DHT22;7654;45.308;-75.096;2022-09-30T06:34:42;2.80;99.90
15107;DHT22;7654;45.308;-75.096;2022-09-30T06:37:12;2.80;99.90
15107;DHT22;7654;45.308;-75.096;2022-09-30T06:39:45;2.90;99.90
15107;DHT22;7654;45.308;-75.096;2022-09-30T06:42:16;2.90;99.90
15107;DHT22;7654;45.308;-75.096;2022-09-30T06:44:46;2.90;99.90
15107;DHT22;7654;45.308;-75.096;2022-09-30T06:47:20;2.90;99.90
15107;DHT22;7654;45.308;-75.096;2022-09-30T06:49:52;2.80;99.90
15107;DHT22;7654;45.308;-75.096;2022-09-30T06:52:26;2.80;99.90
15107;DHT22;7654;45.308;-75.096;2022-09-30T06:54:58;2.80;99.90
15107;DHT22;7654;45.308;-75.096;2022-09-30T06:57:28;2.70;99.90
15107;DHT22;7654;45.308;-75.096;2022-09-30T06:59:58;2.70;99.90
15107;DHT22;7654;45.308;-75.096;2022-09-30T07:02:28;2.70;99.90
15107;DHT22;7654;45.308;-75.096;2022-09-30T07:05:01;2.80;99.90
15107;DHT22;7654;45.308;-75.096;2022-09-30T07:07:32;2.80;99.90
15107;DHT22;7654;45.308;-75.096;2022-09-30T07:10:05;2.70;99.90
15107;DHT22;7654;45.308;-75.096;2022-09-30T07:12:35;2.70;99.90
15107;DHT22;7654;45.308;-75.096;2022-09-30T07:15:06;2.70;99.90
15107;DHT22;7654;45.308;-75.096;2022-09-30T07:17:40;2.70;99.90
15107;DHT22;7654;45.308;-75.096;2022-09-30T07:20:10;2.70;99.90
15107;DHT22;7654;45.308;-75.096;2022-09-30T07:22:41;2.60;99.90
15107;DHT22;7654;45.308;-75.096;2022-09-30T07:25:14;2.60;99.90
15107;DHT22;7654;45.308;-75.096;2022-09-30T07:27:45;2.60;99.90
15107;DHT22;7654;45.308;-75.096;2022-09-30T07:30:15;2.50;99.90
15107;DHT22;7654;45.308;-75.096;2022-09-30T07:32:53;2.40;99.90
15107;DHT22;7654;45.308;-75.096;2022-09-30T07:35:23;2.40;99.90
15107;DHT22;7654;45.308;-75.096;2022-09-30T07:37:53;2.50;99.90
15107;DHT22;7654;45.308;-75.096;2022-09-30T07:40:26;2.60;99.90
15107;DHT22;7654;45.308;-75.096;2022-09-30T07:42:58;2.50;99.90
15107;DHT22;7654;45.308;-75.096;2022-09-30T07:45:28;2.60;99.90
15107;DHT22;7654;45.308;-75.096;2022-09-30T07:47:59;2.60;99.90
15107;DHT22;7654;45.308;-75.096;2022-09-30T07:50:29;2.50;99.90
15107;DHT22;7654;45.308;-75.096;2022-09-30T07:52:59;2.40;99.90
15107;DHT22;7654;45.308;-75.096;2022-09-30T07:55:31;2.40;99.90
15107;DHT22;7654;45.308;-75.096;2022-09-30T07:58:01;2.30;99.90
15107;DHT22;7654;45.308;-75.096;2022-09-30T08:00:33;2.30;99.90
15107;DHT22;7654;45.308;-75.096;2022-09-30T08:03:09;2.40;99.90
15107;DHT22;7654;45.308;-75.096;2022-09-30T08:05:39;2.50;99.90
15107;DHT22;7654;45.308;-75.096;2022-09-30T08:08:12;2.50;99.90
15107;DHT22;7654;45.308;-75.096;2022-09-30T08:10:44;2.50;99.90
15107;DHT22;7654;45.308;-75.096;2022-09-30T08:13:14;2.50;99.90
15107;DHT22;7654;45.308;-75.096;2022-09-30T08:15:44;2.50;99.90
15107;DHT22;7654;45.308;-75.096;2022-09-30T08:18:15;2.50;99.90
15107;DHT22;7654;45.308;-75.096;2022-09-30T08:20:45;2.50;99.90
15107;DHT22;7654;45.308;-75.096;2022-09-30T08:23:16;2.40;99.90
15107;DHT22;7654;45.308;-75.096;2022-09-30T08:25:47;2.30;99.90
15107;DHT22;7654;45.308;-75.096;2022-09-30T08:28:18;2.30;99.90
15107;DHT22;7654;45.308;-75.096;2022-09-30T08:30:48;2.30;99.90
15107;DHT22;7654;45.308;-75.096;2022-09-30T08:33:18;2.30;99.90
15107;DHT22;7654;45.308;-75.096;2022-09-30T08:35:48;2.30;99.90
15107;DHT22;7654;45.308;-75.096;2022-09-30T08:38:18;2.20;99.90
15107;DHT22;7654;45.308;-75.096;2022-09-30T08:41:04;2.20;99.90
15107;DHT22;7654;45.308;-75.096;2022-09-30T08:43:43;2.20;99.90
15107;DHT22;7654;45.308;-75.096;2022-09-30T08:46:27;2.20;99.90
15107;DHT22;7654;45.308;-75.096;2022-09-30T08:49:06;2.20;99.90
15107;DHT22;7654;45.308;-75.096;2022-09-30T08:51:43;2.20;99.90
15107;DHT22;7654;45.308;-75.096;2022-09-30T08:54:17;2.20;99.90
15107;DHT22;7654;45.308;-75.096;2022-09-30T08:56:49;2.20;99.90
15107;DHT22;7654;45.308;-75.096;2022-09-30T08:59:27;2.20;99.90
15107;DHT22;7654;45.308;-75.096;2022-09-30T09:02:01;2.20;99.90
15107;DHT22;7654;45.308;-75.096;2022-09-30T09:04:44;2.30;99.90
15107;DHT22;7654;45.308;-75.096;2022-09-30T09:07:28;2.30;99.90
15107;DHT22;7654;45.308;-75.096;2022-09-30T09:10:14;2.30;99.90
15107;DHT22;7654;45.308;-75.096;2022-09-30T09:12:57;2.30;99.90
15107;DHT22;7654;45.308;-75.096;2022-09-30T09:15:44;2.20;99.90
15107;DHT22;7654;45.308;-75.096;2022-09-30T09:18:32;2.30;99.90
15107;DHT22;7654;45.308;-75.096;2022-09-30T09:21:20;2.40;99.90
15107;DHT22;7654;45.308;-75.096;2022-09-30T09:23:52;2.40;99.90
15107;DHT22;7654;45.308;-75.096;2022-09-30T09:26:27;2.30;99.90
15107;DHT22;7654;45.308;-75.096;2022-09-30T09:29:09;2.20;99.90
15107;DHT22;7654;45.308;-75.096;2022-09-30T09:31:44;2.20;99.90
15107;DHT22;7654;45.308;-75.096;2022-09-30T09:34:15;2.20;99.90
15107;DHT22;7654;45.308;-75.096;2022-09-30T09:37:03;2.10;99.90
15107;DHT22;7654;45.308;-75.096;2022-09-30T09:39:50;2.00;99.90
15107;DHT22;7654;45.308;-75.096;2022-09-30T09:42:37;2.00;99.90
15107;DHT22;7654;45.308;-75.096;2022-09-30T09:45:17;1.90;99.90
15107;DHT22;7654;45.308;-75.096;2022-09-30T09:47:51;1.90;99.90
15107;DHT22;7654;45.308;-75.096;2022-09-30T09:50:30;1.90;99.90
15107;DHT22;7654;45.308;-75.096;2022-09-30T09:53:19;1.90;99.90
15107;DHT22;7654;45.308;-75.096;2022-09-30T09:55:54;1.90;99.90
15107;DHT22;7654;45.308;-75.096;2022-09-30T09:58:27;1.90;99.90
15107;DHT22;7654;45.308;-75.096;2022-09-30T10:01:10;2.00;99.90
15107;DHT22;7654;45.308;-75.096;2022-09-30T10:04:11;1.90;99.90
15107;DHT22;7654;45.308;-75.096;2022-09-30T10:06:44;1.90;99.90
15107;DHT22;7654;45.308;-75.096;2022-09-30T10:09:31;1.90;99.90
15107;DHT22;7654;45.308;-75.096;2022-09-30T10:12:26;1.80;99.90
15107;DHT22;7654;45.308;-75.096;2022-09-30T10:17:55;1.90;99.90
15107;DHT22;7654;45.308;-75.096;2022-09-30T10:20:30;1.80;99.90
15107;DHT22;7654;45.308;-75.096;2022-09-30T10:23:08;1.90;99.90
15107;DHT22;7654;45.308;-75.096;2022-09-30T10:25:38;1.90;99.90
15107;DHT22;7654;45.308;-75.096;2022-09-30T10:28:21;1.90;99.90
15107;DHT22;7654;45.308;-75.096;2022-09-30T10:30:56;1.90;99.90
15107;DHT22;7654;45.308;-75.096;2022-09-30T10:33:32;1.90;99.90
15107;DHT22;7654;45.308;-75.096;2022-09-30T10:36:18;1.90;99.90
15107;DHT22;7654;45.308;-75.096;2022-09-30T10:38:58;1.80;99.90
15107;DHT22;7654;45.308;-75.096;2022-09-30T10:41:35;1.80;99.90
15107;DHT22;7654;45.308;-75.096;2022-09-30T10:44:12;1.90;99.90
15107;DHT22;7654;45.308;-75.096;2022-09-30T10:46:45;2.00;99.90
15107;DHT22;7654;45.308;-75.096;2022-09-30T10:49:28;2.00;99.90
15107;DHT22;7654;45.308;-75.096;2022-09-30T10:52:01;1.90;99.90
15107;DHT22;7654;45.308;-75.096;2022-09-30T10:54:46;1.90;99.90
15107;DHT22;7654;45.308;-75.096;2022-09-30T10:57:20;1.90;99.90
15107;DHT22;7654;45.308;-75.096;2022-09-30T10:59:56;1.80;99.90
15107;DHT22;7654;45.308;-75.096;2022-09-30T11:02:32;1.70;99.90
15107;DHT22;7654;45.308;-75.096;2022-09-30T11:05:14;1.60;99.90
15107;DHT22;7654;45.308;-75.096;2022-09-30T11:07:51;1.60;99.90
15107;DHT22;7654;45.308;-75.096;2022-09-30T11:10:32;1.70;99.90
15107;DHT22;7654;45.308;-75.096;2022-09-30T11:13:12;1.60;99.90
15107;DHT22;7654;45.308;-75.096;2022-09-30T11:15:55;1.60;99.90
15107;DHT22;7654;45.308;-75.096;2022-09-30T11:18:34;1.70;99.90
15107;DHT22;7654;45.308;-75.096;2022-09-30T11:21:14;1.90;99.90
15107;DHT22;7654;45.308;-75.096;2022-09-30T11:23:48;1.90;99.90
15107;DHT22;7654;45.308;-75.096;2022-09-30T11:26:30;1.90;99.90
15107;DHT22;7654;45.308;-75.096;2022-09-30T11:29:12;1.90;99.90
15107;DHT22;7654;45.308;-75.096;2022-09-30T11:31:49;1.90;99.90
15107;DHT22;7654;45.308;-75.096;2022-09-30T11:34:35;2.00;99.90
15107;DHT22;7654;45.308;-75.096;2022-09-30T11:37:14;2.00;99.90
15107;DHT22;7654;45.308;-75.096;2022-09-30T11:40:29;2.10;99.90
15107;DHT22;7654;45.308;-75.096;2022-09-30T11:43:13;2.20;99.90
15107;DHT22;7654;45.308;-75.096;2022-09-30T11:45:57;2.30;99.90
15107;DHT22;7654;45.308;-75.096;2022-09-30T11:48:41;2.50;99.90
15107;DHT22;7654;45.308;-75.096;2022-09-30T11:51:21;2.60;99.90
15107;DHT22;7654;45.308;-75.096;2022-09-30T11:54:12;2.80;99.90
15107;DHT22;7654;45.308;-75.096;2022-09-30T11:56:51;2.90;99.90
15107;DHT22;7654;45.308;-75.096;2022-09-30T11:59:27;3.00;99.90
15107;DHT22;7654;45.308;-75.096;2022-09-30T12:02:01;3.10;99.90
15107;DHT22;7654;45.308;-75.096;2022-09-30T12:04:36;3.20;99.90
15107;DHT22;7654;45.308;-75.096;2022-09-30T12:07:13;3.30;99.90
15107;DHT22;7654;45.308;-75.096;2022-09-30T12:09:48;3.40;99.90
15107;DHT22;7654;45.308;-75.096;2022-09-30T12:12:20;3.50;99.90
15107;DHT22;7654;45.308;-75.096;2022-09-30T12:14:54;3.70;99.90
15107;DHT22;7654;45.308;-75.096;2022-09-30T12:17:28;3.90;99.90
15107;DHT22;7654;45.308;-75.096;2022-09-30T12:20:06;4.00;99.90
15107;DHT22;7654;45.308;-75.096;2022-09-30T12:22:40;4.10;99.90
15107;DHT22;7654;45.308;-75.096;2022-09-30T12:25:16;4.20;99.90
15107;DHT22;7654;45.308;-75.096;2022-09-30T12:27:51;4.40;99.90
15107;DHT22;7654;45.308;-75.096;2022-09-30T12:30:24;4.50;99.90
15107;DHT22;7654;45.308;-75.096;2022-09-30T12:33:17;4.70;99.90
15107;DHT22;7654;45.308;-75.096;2022-09-30T12:36:20;4.80;99.90
15107;DHT22;7654;45.308;-75.096;2022-09-30T12:45:30;5.50;99.90
15107;DHT22;7654;45.308;-75.096;2022-09-30T12:48:06;5.60;99.90
15107;DHT22;7654;45.308;-75.096;2022-09-30T12:50:46;5.70;99.90
15107;DHT22;7654;45.308;-75.096;2022-09-30T12:53:20;5.80;99.90
15107;DHT22;7654;45.308;-75.096;2022-09-30T12:55:51;5.80;99.90
15107;DHT22;7654;45.308;-75.096;2022-09-30T12:58:26;5.80;99.90
15107;DHT22;7654;45.308;-75.096;2022-09-30T13:01:02;5.90;99.90
15107;DHT22;7654;45.308;-75.096;2022-09-30T13:03:45;6.00;99.90
15107;DHT22;7654;45.308;-75.096;2022-09-30T13:06:18;6.10;99.90
15107;DHT22;7654;45.308;-75.096;2022-09-30T13:09:15;6.10;99.90
15107;DHT22;7654;45.308;-75.096;2022-09-30T13:11:47;6.20;99.90
15107;DHT22;7654;45.308;-75.096;2022-09-30T13:14:34;6.40;99.90
15107;DHT22;7654;45.308;-75.096;2022-09-30T13:17:33;6.50;99.90
15107;DHT22;7654;45.308;-75.096;2022-09-30T13:20:49;6.70;99.90
15107;DHT22;7654;45.308;-75.096;2022-09-30T13:23:36;6.90;99.90
15107;DHT22;7654;45.308;-75.096;2022-09-30T13:26:37;7.10;99.90
15107;DHT22;7654;45.308;-75.096;2022-09-30T13:29:35;7.30;99.90
15107;DHT22;7654;45.308;-75.096;2022-09-30T13:32:07;7.50;99.90
15107;DHT22;7654;45.308;-75.096;2022-09-30T13:34:55;7.60;99.90
15107;DHT22;7654;45.308;-75.096;2022-09-30T13:37:39;7.80;99.90
15107;DHT22;7654;45.308;-75.096;2022-09-30T13:40:19;8.00;99.90
15107;DHT22;7654;45.308;-75.096;2022-09-30T13:43:16;8.10;99.90
15107;DHT22;7654;45.308;-75.096;2022-09-30T13:45:51;8.30;99.90
15107;DHT22;7654;45.308;-75.096;2022-09-30T13:48:27;8.30;99.90
15107;DHT22;7654;45.308;-75.096;2022-09-30T13:50:59;8.40;99.90
15107;DHT22;7654;45.308;-75.096;2022-09-30T13:53:35;8.50;99.90
15107;DHT22;7654;45.308;-75.096;2022-09-30T13:56:11;8.50;99.90
15107;DHT22;7654;45.308;-75.096;2022-09-30T13:59:10;8.60;99.90
15107;DHT22;7654;45.308;-75.096;2022-09-30T14:02:00;8.80;99.90
15107;DHT22;7654;45.308;-75.096;2022-09-30T14:04:51;8.90;99.90
15107;DHT22;7654;45.308;-75.096;2022-09-30T14:07:36;9.10;99.90
15107;DHT22;7654;45.308;-75.096;2022-09-30T14:10:24;9.10;99.90
15107;DHT22;7654;45.308;-75.096;2022-09-30T14:13:10;9.20;99.90
15107;DHT22;7654;45.308;-75.096;2022-09-30T14:16:09;9.30;99.90
15107;DHT22;7654;45.308;-75.096;2022-09-30T14:19:11;9.40;99.90
15107;DHT22;7654;45.308;-75.096;2022-09-30T14:21:45;9.60;99.90
15107;DHT22;7654;45.308;-75.096;2022-09-30T14:24:22;9.70;99.90
15107;DHT22;7654;45.308;-75.096;2022-09-30T14:27:01;9.80;99.90
15107;DHT22;7654;45.308;-75.096;2022-09-30T14:29:40;9.90;99.90
15107;DHT22;7654;45.308;-75.096;2022-09-30T14:32:13;10.00;99.90
15107;DHT22;7654;45.308;-75.096;2022-09-30T14:34:48;10.10;99.90
15107;DHT22;7654;45.308;-75.096;2022-09-30T14:37:22;10.30;99.90
15107;DHT22;7654;45.308;-75.096;2022-09-30T14:39:53;10.40;99.90
15107;DHT22;7654;45.308;-75.096;2022-09-30T14:42:28;10.50;99.90
15107;DHT22;7654;45.308;-75.096;2022-09-30T14:45:01;10.60;99.90
15107;DHT22;7654;45.308;-75.096;2022-09-30T14:47:35;10.70;99.90
15107;DHT22;7654;45.308;-75.096;2022-09-30T14:50:13;10.80;99.90
15107;DHT22;7654;45.308;-75.096;2022-09-30T14:52:44;10.90;99.90
15107;DHT22;7654;45.308;-75.096;2022-09-30T14:55:21;11.00;99.90
15107;DHT22;7654;45.308;-75.096;2022-09-30T14:57:53;11.20;99.90
15107;DHT22;7654;45.308;-75.096;2022-09-30T15:00:28;11.30;99.90
15107;DHT22;7654;45.308;-75.096;2022-09-30T15:02:59;11.50;99.90
15107;DHT22;7654;45.308;-75.096;2022-09-30T15:05:35;11.60;99.90
15107;DHT22;7654;45.308;-75.096;2022-09-30T15:08:10;11.80;99.90
15107;DHT22;7654;45.308;-75.096;2022-09-30T15:10:46;11.90;99.90
15107;DHT22;7654;45.308;-75.096;2022-09-30T15:13:17;12.00;99.90
15107;DHT22;7654;45.308;-75.096;2022-09-30T15:15:48;12.10;99.90
15107;DHT22;7654;45.308;-75.096;2022-09-30T15:21:10;12.40;99.90
15107;DHT22;7654;45.308;-75.096;2022-09-30T15:23:43;12.60;99.90
15107;DHT22;7654;45.308;-75.096;2022-09-30T15:26:15;12.80;99.90
15107;DHT22;7654;45.308;-75.096;2022-09-30T15:28:45;13.00;99.90
15107;DHT22;7654;45.308;-75.096;2022-09-30T15:31:20;13.10;99.90
15107;DHT22;7654;45.308;-75.096;2022-09-30T15:34:03;13.30;99.90
15107;DHT22;7654;45.308;-75.096;2022-09-30T15:36:36;13.50;99.90
15107;DHT22;7654;45.308;-75.096;2022-09-30T15:39:18;13.60;99.90
15107;DHT22;7654;45.308;-75.096;2022-09-30T15:41:50;13.80;99.90
15107;DHT22;7654;45.308;-75.096;2022-09-30T15:44:36;13.90;99.90
15107;DHT22;7654;45.308;-75.096;2022-09-30T15:47:08;14.10;99.90
15107;DHT22;7654;45.308;-75.096;2022-09-30T15:49:46;14.20;99.90
15107;DHT22;7654;45.308;-75.096;2022-09-30T15:52:29;14.40;99.90
15107;DHT22;7654;45.308;-75.096;2022-09-30T15:55:38;14.50;99.90
15107;DHT22;7654;45.308;-75.096;2022-09-30T15:58:32;14.60;99.90
15107;DHT22;7654;45.308;-75.096;2022-09-30T16:01:16;14.80;99.90
15107;DHT22;7654;45.308;-75.096;2022-09-30T16:03:53;15.00;99.90
15107;DHT22;7654;45.308;-75.096;2022-09-30T16:06:26;15.20;99.90
15107;DHT22;7654;45.308;-75.096;2022-09-30T16:09:03;15.30;99.90
15107;DHT22;7654;45.308;-75.096;2022-09-30T16:11:37;15.40;99.90
15107;DHT22;7654;45.308;-75.096;2022-09-30T16:14:10;15.80;99.90
15107;DHT22;7654;45.308;-75.096;2022-09-30T16:16:49;16.10;99.90
15107;DHT22;7654;45.308;-75.096;2022-09-30T16:19:23;16.60;99.90
15107;DHT22;7654;45.308;-75.096;2022-09-30T16:21:54;17.10;99.90
15107;DHT22;7654;45.308;-75.096;2022-09-30T16:24:46;17.30;99.90
15107;DHT22;7654;45.308;-75.096;2022-09-30T16:27:25;17.50;99.90
15107;DHT22;7654;45.308;-75.096;2022-09-30T16:29:57;17.70;99.90
15107;DHT22;7654;45.308;-75.096;2022-09-30T16:35:01;18.50;99.90
15107;DHT22;7654;45.308;-75.096;2022-09-30T16:37:32;18.50;99.90
15107;DHT22;7654;45.308;-75.096;2022-09-30T16:40:15;18.60;99.90
15107;DHT22;7654;45.308;-75.096;2022-09-30T16:42:45;18.80;99.90
15107;DHT22;7654;45.308;-75.096;2022-09-30T16:45:15;19.20;99.90
15107;DHT22;7654;45.308;-75.096;2022-09-30T16:47:46;19.20;99.90
15107;DHT22;7654;45.308;-75.096;2022-09-30T16:50:23;19.30;99.90